createdAt,value
2022-08-26T00:00:52.373Z,5.37
2022-08-26T00:03:21.080Z,5.18
2022-08-26T00:05:50.948Z,5.65
2022-08-26T00:08:21.299Z,5.80
2022-08-26T00:10:49.441Z,5.13
2022-08-26T00:13:19.537Z,5.45
2022-08-26T00:15:47.917Z,5.10
2022-08-26T00:18:22.207Z,5.30
2022-08-26T00:20:51.751Z,5.15
2022-08-26T00:23:20.454Z,5.35
2022-08-26T00:25:52.706Z,5.25
2022-08-26T00:28:21.570Z,5.78
2022-08-26T00:30:51.563Z,5.32
2022-08-26T00:33:22.616Z,5.07
2022-08-26T00:35:51.577Z,5.38
2022-08-26T00:38:22.267Z,5.32
2022-08-26T00:40:55.142Z,5.35
2022-08-26T00:43:24.667Z,4.85
2022-08-26T00:45:58.662Z,6.10
2022-08-26T00:48:31.871Z,5.10
2022-08-26T00:51:03.466Z,5.43
2022-08-26T00:53:36.660Z,4.93
2022-08-26T00:56:08.994Z,5.70
2022-08-26T00:58:43.089Z,5.40
2022-08-26T01:01:12.512Z,5.28
2022-08-26T01:06:13.221Z,5.43
2022-08-26T01:08:42.525Z,5.30
2022-08-26T01:11:12.302Z,5.47
2022-08-26T01:16:12.818Z,5.85
2022-08-26T01:18:43.998Z,5.22
2022-08-26T01:21:19.114Z,5.03
2022-08-26T01:23:51.823Z,4.93
2022-08-26T01:26:29.603Z,5.47
2022-08-26T01:29:00.289Z,5.38
2022-08-26T01:31:31.838Z,5.90
2022-08-26T01:34:06.616Z,5.88
2022-08-26T01:36:38.519Z,5.20
2022-08-26T01:41:38.025Z,5.35
2022-08-26T01:44:09.833Z,6.18
2022-08-26T01:46:38.480Z,5.78
2022-08-26T01:49:09.353Z,5.20
2022-08-26T01:51:39.779Z,5.47
2022-08-26T01:54:11.871Z,5.15
2022-08-26T01:56:42.209Z,5.57
2022-08-26T01:59:15.560Z,5.68
2022-08-26T02:01:45.598Z,6.05
2022-08-26T02:04:18.663Z,5.63
2022-08-26T02:06:48.193Z,5.35
2022-08-26T02:11:46.238Z,6.00
2022-08-26T02:14:20.983Z,5.90
2022-08-26T02:16:51.925Z,5.55
2022-08-26T02:19:23.788Z,6.10
2022-08-26T02:21:54.072Z,5.45
2022-08-26T02:24:27.799Z,5.53
2022-08-26T02:26:57.390Z,5.60
2022-08-26T02:29:30.284Z,6.03
2022-08-26T02:31:59.578Z,6.18
2022-08-26T02:34:31.023Z,5.97
2022-08-26T02:37:00.690Z,6.05
2022-08-26T02:39:31.248Z,5.90
2022-08-26T02:42:00.293Z,5.90
2022-08-26T02:44:28.654Z,5.43
2022-08-26T02:46:57.288Z,6.30
2022-08-26T02:49:26.549Z,6.80
2022-08-26T02:51:55.025Z,5.35
2022-08-26T02:54:23.540Z,6.32
2022-08-26T02:56:53.110Z,6.22
2022-08-26T03:01:56.097Z,5.75
2022-08-26T03:04:25.883Z,5.72
2022-08-26T03:06:55.437Z,6.53
2022-08-26T03:11:55.462Z,6.28
2022-08-26T03:14:24.836Z,6.40
2022-08-26T03:16:54.439Z,5.97
2022-08-26T03:19:24.860Z,5.63
2022-08-26T03:21:57.975Z,6.55
2022-08-26T03:24:27.693Z,6.03
2022-08-26T03:29:42.878Z,5.75
2022-08-26T03:32:11.690Z,6.20
2022-08-26T03:34:39.832Z,6.05
2022-08-26T03:37:07.995Z,5.97
2022-08-26T03:39:36.908Z,6.25
2022-08-26T03:42:06.963Z,6.20
2022-08-26T03:44:35.753Z,6.13
2022-08-26T03:47:04.797Z,6.05
2022-08-26T03:49:35.921Z,7.97
2022-08-26T03:52:05.055Z,7.38
2022-08-26T03:54:33.877Z,7.88
2022-08-26T03:57:02.210Z,7.55
2022-08-26T03:59:32.079Z,8.57
2022-08-26T04:02:00.401Z,7.68
2022-08-26T04:04:28.963Z,8.03
2022-08-26T04:06:58.669Z,8.55
2022-08-26T04:09:28.580Z,8.38
2022-08-26T04:11:58.697Z,9.65
2022-08-26T04:14:28.488Z,9.48
2022-08-26T04:16:58.421Z,9.10
2022-08-26T04:19:27.456Z,9.25
2022-08-26T04:21:55.943Z,9.18
2022-08-26T04:24:27.873Z,9.13
2022-08-26T04:26:56.631Z,9.23
2022-08-26T04:29:26.832Z,9.00
2022-08-26T04:31:57.169Z,9.45
2022-08-26T04:34:28.545Z,9.18
2022-08-26T04:36:57.725Z,8.93
2022-08-26T04:39:27.546Z,8.50
2022-08-26T04:41:57.816Z,8.30
2022-08-26T04:44:28.530Z,8.90
2022-08-26T04:46:59.568Z,9.50
2022-08-26T04:49:28.038Z,9.85
2022-08-26T04:52:03.821Z,10.30
2022-08-26T04:57:01.199Z,9.98
2022-08-26T04:59:29.329Z,9.23
2022-08-26T05:01:59.691Z,10.27
2022-08-26T05:04:28.149Z,9.50
2022-08-26T05:07:02.758Z,10.50
2022-08-26T05:09:31.370Z,9.40
2022-08-26T05:11:59.536Z,9.10
2022-08-26T05:14:27.970Z,9.68
2022-08-26T05:16:56.141Z,9.02
2022-08-26T05:19:27.975Z,8.70
2022-08-26T05:21:56.201Z,8.13
2022-08-26T05:24:24.695Z,8.43
2022-08-26T05:26:53.100Z,7.65
2022-08-26T05:29:21.230Z,7.72
2022-08-26T05:31:53.406Z,7.90
2022-08-26T05:34:25.793Z,10.18
2022-08-26T05:36:58.541Z,10.57
2022-08-26T05:39:26.689Z,11.85
2022-08-26T05:41:54.838Z,11.73
2022-08-26T05:44:22.947Z,11.65
2022-08-26T05:46:51.704Z,11.10
2022-08-26T05:49:20.377Z,11.27
2022-08-26T05:51:52.096Z,10.57
2022-08-26T05:54:22.147Z,10.25
2022-08-26T05:56:51.186Z,10.68
2022-08-26T05:59:24.234Z,9.63
2022-08-26T06:01:53.439Z,9.95
2022-08-26T06:04:22.461Z,11.27
2022-08-26T06:06:54.392Z,10.35
2022-08-26T06:11:51.702Z,8.90
2022-08-26T06:14:19.869Z,9.60
2022-08-26T06:16:48.348Z,9.10
2022-08-26T06:19:17.433Z,9.18
2022-08-26T06:21:51.300Z,8.80
2022-08-26T06:24:41.479Z,10.48
2022-08-26T06:27:13.887Z,10.50
2022-08-26T06:29:43.571Z,10.18
2022-08-26T06:32:11.729Z,9.85
2022-08-26T06:34:39.855Z,8.85
2022-08-26T06:37:08.889Z,8.55
2022-08-26T06:39:41.131Z,9.68
2022-08-26T06:42:11.765Z,9.95
2022-08-26T06:44:40.963Z,10.75
2022-08-26T06:47:09.320Z,10.75
2022-08-26T06:49:37.449Z,11.73
2022-08-26T06:52:05.678Z,9.68
2022-08-26T06:54:33.869Z,10.23
2022-08-26T06:57:03.466Z,12.10
2022-08-26T06:59:32.234Z,12.30
2022-08-26T07:02:00.408Z,11.40
2022-08-26T07:04:30.446Z,12.98
2022-08-26T07:06:58.739Z,14.25
2022-08-26T07:09:29.257Z,12.50
2022-08-26T07:11:58.313Z,13.18
2022-08-26T07:14:27.943Z,12.10
2022-08-26T07:19:30.066Z,15.63
2022-08-26T07:21:58.862Z,15.77
2022-08-26T07:24:28.520Z,15.13
2022-08-26T07:27:00.545Z,15.55
2022-08-26T07:29:30.334Z,20.98
2022-08-26T07:34:28.148Z,16.40
2022-08-26T07:36:57.053Z,20.42
2022-08-26T07:39:26.373Z,22.30
2022-08-26T07:41:55.071Z,24.95
2022-08-26T07:44:24.040Z,25.88
2022-08-26T07:46:53.926Z,25.58
2022-08-26T07:49:23.257Z,25.98
2022-08-26T07:51:51.939Z,23.93
2022-08-26T07:54:20.533Z,20.52
2022-08-26T07:56:56.041Z,20.42
2022-08-26T07:59:24.397Z,19.13
2022-08-26T08:01:54.004Z,16.98
2022-08-26T08:04:26.366Z,16.13
2022-08-26T08:06:55.474Z,14.20
2022-08-26T08:09:23.900Z,15.27
2022-08-26T08:11:53.154Z,14.95
2022-08-26T08:14:22.343Z,14.50
2022-08-26T08:16:51.124Z,13.02
2022-08-26T08:19:29.860Z,13.23
2022-08-26T08:22:17.373Z,13.65
2022-08-26T08:24:49.694Z,13.77
2022-08-26T08:27:22.938Z,15.73
2022-08-26T08:29:54.267Z,13.77
2022-08-26T08:32:23.392Z,14.65
2022-08-26T08:34:52.997Z,13.10
2022-08-26T08:37:21.128Z,13.00
2022-08-26T08:39:49.795Z,14.15
2022-08-26T08:42:39.081Z,14.80
2022-08-26T08:45:13.904Z,13.63
2022-08-26T08:47:45.558Z,14.65
2022-08-26T08:50:22.821Z,14.00
2022-08-26T08:52:57.414Z,13.63
2022-08-26T08:55:31.482Z,15.00
2022-08-26T08:58:06.680Z,13.48
2022-08-26T09:00:47.697Z,13.73
2022-08-26T09:03:32.329Z,13.35
2022-08-26T09:06:04.602Z,13.82
2022-08-26T09:08:36.952Z,13.30
2022-08-26T09:11:05.533Z,13.85
2022-08-26T09:13:36.131Z,12.82
2022-08-26T09:16:10.364Z,13.90
2022-08-26T09:18:54.650Z,14.57
2022-08-26T09:21:25.529Z,13.55
2022-08-26T09:23:56.852Z,13.00
2022-08-26T09:26:29.665Z,13.95
2022-08-26T09:29:02.768Z,15.13
2022-08-26T09:31:32.539Z,13.85
2022-08-26T09:34:17.155Z,13.38
2022-08-26T09:36:49.537Z,13.77
2022-08-26T09:39:34.034Z,14.48
2022-08-26T09:42:11.234Z,14.65
2022-08-26T09:44:57.178Z,14.23
2022-08-26T09:47:33.378Z,13.48
2022-08-26T09:50:09.577Z,12.45
2022-08-26T09:52:40.589Z,12.60
2022-08-26T09:55:16.131Z,14.02
2022-08-26T09:57:51.172Z,12.57
2022-08-26T10:00:29.555Z,12.23
2022-08-26T10:02:58.411Z,12.40
2022-08-26T10:05:33.247Z,13.43
2022-08-26T10:08:21.115Z,13.30
2022-08-26T10:10:52.979Z,12.70
2022-08-26T10:13:26.617Z,13.57
2022-08-26T10:16:04.603Z,12.80
2022-08-26T10:18:36.800Z,13.70
2022-08-26T10:21:10.872Z,13.13
2022-08-26T10:23:45.310Z,13.05
2022-08-26T10:26:19.317Z,12.23
2022-08-26T10:28:53.700Z,12.75
2022-08-26T10:31:28.913Z,13.50
2022-08-26T10:34:00.081Z,14.15
2022-08-26T10:37:14.865Z,13.77
2022-08-26T10:39:51.863Z,13.23
2022-08-26T10:42:30.448Z,13.30
2022-08-26T10:45:05.425Z,13.85
2022-08-26T10:47:41.367Z,13.38
2022-08-26T10:50:10.572Z,13.32
2022-08-26T10:52:53.782Z,13.57
2022-08-26T10:55:29.443Z,14.18
2022-08-26T10:58:14.644Z,17.05
2022-08-26T11:01:23.040Z,15.50
2022-08-26T11:03:58.759Z,14.63
2022-08-26T11:06:29.735Z,16.38
2022-08-26T11:08:59.614Z,15.20
2022-08-26T11:11:47.990Z,21.30
2022-08-26T11:14:53.104Z,21.67
2022-08-26T11:17:56.517Z,21.90
2022-08-26T11:20:34.969Z,21.60
2022-08-26T11:23:50.695Z,21.60
2022-08-26T11:26:37.617Z,22.80
2022-08-26T11:29:13.550Z,20.52
2022-08-26T11:31:57.220Z,20.38
2022-08-26T11:34:55.169Z,19.25
2022-08-26T11:37:32.988Z,22.25
2022-08-26T11:40:03.140Z,19.58
2022-08-26T11:42:37.671Z,19.73
2022-08-26T11:45:23.756Z,18.55
2022-08-26T11:47:51.953Z,21.58
2022-08-26T11:50:23.477Z,18.73
2022-08-26T11:53:01.546Z,19.10
2022-08-26T11:55:30.768Z,17.77
2022-08-26T11:58:01.905Z,19.15
2022-08-26T12:00:49.792Z,17.83
2022-08-26T12:03:20.849Z,17.17
2022-08-26T12:05:53.390Z,18.63
2022-08-26T12:08:27.794Z,19.27
2022-08-26T12:11:04.487Z,16.92
2022-08-26T12:13:32.807Z,15.85
2022-08-26T12:16:02.811Z,16.52
2022-08-26T12:18:33.806Z,18.08
2022-08-26T12:21:10.977Z,17.98
2022-08-26T12:23:43.925Z,16.55
2022-08-26T12:26:19.461Z,18.17
2022-08-26T12:28:51.448Z,16.13
2022-08-26T12:31:33.379Z,17.98
2022-08-26T12:34:04.130Z,15.63
2022-08-26T12:36:36.171Z,16.67
2022-08-26T12:39:09.189Z,16.33
2022-08-26T12:41:50.814Z,17.00
2022-08-26T12:44:42.662Z,16.30
2022-08-26T12:47:41.773Z,14.00
2022-08-26T12:50:17.529Z,13.48
2022-08-26T12:52:55.436Z,22.98
2022-08-26T12:55:27.742Z,28.58
2022-08-26T12:58:11.869Z,28.60
2022-08-26T13:00:42.925Z,23.13
2022-08-26T13:03:43.452Z,19.70
2022-08-26T13:06:30.021Z,17.35
2022-08-26T13:08:59.664Z,16.48
2022-08-26T13:11:30.509Z,15.20
2022-08-26T13:14:01.052Z,14.00
2022-08-26T13:16:30.115Z,13.55
2022-08-26T13:19:02.032Z,12.17
2022-08-26T13:21:32.049Z,11.43
2022-08-26T13:24:08.577Z,11.63
2022-08-26T13:26:36.812Z,11.52
2022-08-26T13:29:10.136Z,11.07
2022-08-26T13:31:41.613Z,11.25
2022-08-26T13:34:14.252Z,10.90
2022-08-26T13:36:44.931Z,10.00
2022-08-26T13:39:13.762Z,10.50
2022-08-26T13:41:42.442Z,10.38
2022-08-26T13:44:10.718Z,10.48
2022-08-26T13:46:39.086Z,10.30
2022-08-26T13:49:07.921Z,9.65
2022-08-26T13:51:38.456Z,10.95
2022-08-26T13:54:07.663Z,9.90
2022-08-26T13:56:36.749Z,9.10
2022-08-26T14:01:33.456Z,10.27
2022-08-26T14:04:03.080Z,11.07
2022-08-26T14:06:31.737Z,10.55
2022-08-26T14:09:01.515Z,11.32
2022-08-26T14:11:30.193Z,12.05
2022-08-26T14:14:09.301Z,12.95
2022-08-26T14:16:59.004Z,11.60
2022-08-26T14:19:29.679Z,11.80
2022-08-26T14:21:58.874Z,10.93
2022-08-26T14:26:57.037Z,11.80
2022-08-26T14:29:25.153Z,11.27
2022-08-26T14:31:54.588Z,11.38
2022-08-26T14:34:22.708Z,12.18
2022-08-26T14:36:50.841Z,12.10
2022-08-26T14:39:18.970Z,10.30
2022-08-26T14:41:54.426Z,11.15
2022-08-26T14:44:24.482Z,10.75
2022-08-26T14:46:53.710Z,11.05
2022-08-26T14:51:50.646Z,11.20
2022-08-26T14:54:18.809Z,11.97
2022-08-26T14:56:51.252Z,9.98
2022-08-26T14:59:21.548Z,9.55
2022-08-26T15:01:50.083Z,10.07
2022-08-26T15:04:18.624Z,9.37
2022-08-26T15:06:47.369Z,9.10
2022-08-26T15:09:15.882Z,10.98
2022-08-26T15:11:44.567Z,10.53
2022-08-26T15:14:19.486Z,10.23
2022-08-26T15:16:49.529Z,9.32
2022-08-26T15:19:18.677Z,8.95
2022-08-26T15:21:47.429Z,8.77
2022-08-26T15:24:18.187Z,9.40
2022-08-26T15:26:47.285Z,8.07
2022-08-26T15:29:16.909Z,7.60
2022-08-26T15:31:45.117Z,7.68
2022-08-26T15:34:16.747Z,7.90
2022-08-26T15:36:46.794Z,9.15
2022-08-26T15:39:16.369Z,7.55
2022-08-26T15:41:44.607Z,8.43
2022-08-26T15:44:14.035Z,6.20
2022-08-26T15:46:43.974Z,5.55
2022-08-26T15:49:12.148Z,5.93
2022-08-26T15:51:47.974Z,5.93
2022-08-26T15:56:45.430Z,6.00
2022-08-26T15:59:16.280Z,6.28
2022-08-26T16:01:46.164Z,5.40
2022-08-26T16:04:14.913Z,5.47
2022-08-26T16:06:43.791Z,6.25
2022-08-26T16:09:12.291Z,6.25
2022-08-26T16:11:40.438Z,5.60
2022-08-26T16:14:08.928Z,5.50
2022-08-26T16:16:40.089Z,5.55
2022-08-26T16:19:10.145Z,5.43
2022-08-26T16:21:38.418Z,5.35
2022-08-26T16:24:06.914Z,5.65
2022-08-26T16:26:38.026Z,5.30
2022-08-26T16:29:08.672Z,5.25
2022-08-26T16:31:37.946Z,5.90
2022-08-26T16:36:36.145Z,5.13
2022-08-26T16:39:06.113Z,4.78
2022-08-26T16:41:35.106Z,5.43
2022-08-26T16:44:03.823Z,5.03
2022-08-26T16:46:32.374Z,4.90
2022-08-26T16:49:03.583Z,5.50
2022-08-26T16:51:32.448Z,4.60
2022-08-26T16:54:08.987Z,5.22
2022-08-26T16:56:37.931Z,5.28
2022-08-26T16:59:09.543Z,5.60
2022-08-26T17:01:37.753Z,5.07
2022-08-26T17:04:05.951Z,4.90
2022-08-26T17:06:34.172Z,4.85
2022-08-26T17:09:02.346Z,4.68
2022-08-26T17:11:32.068Z,4.80
2022-08-26T17:14:00.344Z,4.10
2022-08-26T17:16:28.547Z,5.30
2022-08-26T17:18:57.655Z,4.78
2022-08-26T17:21:26.930Z,4.70
2022-08-26T17:23:56.285Z,5.13
2022-08-26T17:26:24.465Z,4.95
2022-08-26T17:28:54.238Z,5.32
2022-08-26T17:31:24.387Z,4.50
2022-08-26T17:33:53.426Z,4.70
2022-08-26T17:36:23.029Z,6.07
2022-08-26T17:38:57.069Z,4.90
2022-08-26T17:41:25.402Z,4.20
2022-08-26T17:43:55.101Z,5.03
2022-08-26T17:46:23.760Z,4.85
2022-08-26T17:48:51.941Z,4.93
2022-08-26T17:51:22.957Z,5.88
2022-08-26T17:53:52.145Z,5.38
2022-08-26T17:56:23.948Z,5.35
2022-08-26T17:58:54.488Z,5.50
2022-08-26T18:01:23.543Z,5.20
2022-08-26T18:03:51.918Z,5.80
2022-08-26T18:06:22.025Z,5.72
2022-08-26T18:08:51.973Z,6.00
2022-08-26T18:11:24.496Z,5.50
2022-08-26T18:13:54.235Z,5.60
2022-08-26T18:16:22.706Z,5.30
2022-08-26T18:18:53.309Z,5.43
2022-08-26T18:21:23.901Z,5.60
2022-08-26T18:23:53.109Z,5.13
2022-08-26T18:26:24.102Z,5.90
2022-08-26T18:28:52.785Z,4.93
2022-08-26T18:31:22.620Z,5.73
2022-08-26T18:33:51.293Z,5.65
2022-08-26T18:36:21.698Z,5.93
2022-08-26T18:38:52.582Z,5.10
2022-08-26T18:43:50.782Z,5.22
2022-08-26T18:46:22.041Z,4.97
2022-08-26T18:48:51.241Z,4.32
2022-08-26T18:51:21.664Z,5.10
2022-08-26T18:53:49.924Z,4.90
2022-08-26T18:56:18.794Z,4.70
2022-08-26T18:58:47.399Z,4.53
2022-08-26T19:01:16.470Z,4.30
2022-08-26T19:03:46.858Z,3.97
2022-08-26T19:06:16.612Z,4.63
2022-08-26T19:08:45.050Z,5.00
2022-08-26T19:11:18.802Z,4.97
2022-08-26T19:14:01.319Z,4.25
2022-08-26T19:16:30.312Z,4.43
2022-08-26T19:19:01.412Z,4.00
2022-08-26T19:21:30.796Z,4.07
2022-08-26T19:24:00.385Z,3.80
2022-08-26T19:26:29.594Z,4.55
2022-08-26T19:28:58.293Z,4.00
2022-08-26T19:31:26.612Z,3.93
2022-08-26T19:33:54.761Z,3.58
2022-08-26T19:36:25.950Z,3.58
2022-08-26T19:38:55.817Z,4.00
2022-08-26T19:41:36.979Z,3.90
2022-08-26T19:44:08.968Z,3.30
2022-08-26T19:49:10.604Z,3.63
2022-08-26T19:51:40.170Z,3.33
2022-08-26T19:56:36.592Z,3.15
2022-08-26T19:59:04.757Z,2.90
2022-08-26T20:01:33.087Z,2.70
2022-08-26T20:04:01.822Z,2.97
2022-08-26T20:06:30.997Z,2.73
2022-08-26T20:09:01.277Z,2.70
2022-08-26T20:11:29.988Z,3.03
2022-08-26T20:13:59.764Z,2.53
2022-08-26T20:16:28.128Z,2.70
2022-08-26T20:19:10.230Z,2.65
2022-08-26T20:21:40.560Z,2.75
2022-08-26T20:24:12.538Z,2.00
2022-08-26T20:26:44.310Z,2.40
2022-08-26T20:29:15.718Z,2.42
2022-08-26T20:31:44.864Z,2.65
2022-08-26T20:34:14.056Z,2.95
2022-08-26T20:36:43.662Z,2.45
2022-08-26T20:41:42.416Z,2.58
2022-08-26T20:44:10.765Z,2.30
2022-08-26T20:46:39.043Z,2.60
2022-08-26T20:49:08.187Z,2.60
2022-08-26T20:51:37.467Z,2.40
2022-08-26T20:54:06.602Z,2.67
2022-08-26T20:56:36.907Z,2.50
2022-08-26T20:59:07.994Z,2.40
2022-08-26T21:01:42.396Z,2.40
2022-08-26T21:04:14.389Z,1.80
2022-08-26T21:06:45.122Z,2.03
2022-08-26T21:09:16.514Z,1.98
2022-08-26T21:11:46.703Z,1.85
2022-08-26T21:14:16.106Z,2.65
2022-08-26T21:16:46.350Z,2.35
2022-08-26T21:19:17.602Z,2.30
2022-08-26T21:21:46.000Z,2.50
2022-08-26T21:24:14.266Z,2.22
2022-08-26T21:26:42.902Z,2.50
2022-08-26T21:29:13.640Z,2.40
2022-08-26T21:31:46.109Z,2.03
2022-08-26T21:34:15.487Z,2.10
2022-08-26T21:36:43.820Z,1.80
2022-08-26T21:39:12.696Z,1.83
2022-08-26T21:41:42.616Z,2.00
2022-08-26T21:44:12.967Z,1.80
2022-08-26T21:46:42.020Z,2.35
2022-08-26T21:49:12.342Z,1.90
2022-08-26T21:51:43.966Z,2.00
2022-08-26T21:54:13.349Z,1.92
2022-08-26T21:56:46.573Z,2.20
2022-08-26T21:59:17.936Z,2.03
2022-08-26T22:01:46.596Z,2.22
2022-08-26T22:04:15.330Z,1.95
2022-08-26T22:06:45.103Z,2.20
2022-08-26T22:09:14.500Z,2.55
2022-08-26T22:11:42.772Z,2.13
2022-08-26T22:14:11.965Z,2.80
2022-08-26T22:16:41.831Z,1.80
2022-08-26T22:19:19.922Z,2.55
2022-08-26T22:24:18.265Z,2.30
2022-08-26T22:26:46.803Z,1.67
2022-08-26T22:29:15.225Z,2.03
2022-08-26T22:31:44.937Z,2.17
2022-08-26T22:34:15.779Z,2.20
2022-08-26T22:36:46.564Z,2.33
2022-08-26T22:39:15.583Z,2.17
2022-08-26T22:41:45.014Z,2.00
2022-08-26T22:44:13.672Z,2.00
2022-08-26T22:46:42.846Z,2.25
2022-08-26T22:49:15.824Z,1.95
2022-08-26T22:51:44.394Z,2.10
2022-08-26T22:54:13.003Z,2.13
2022-08-26T22:56:41.746Z,2.30
2022-08-26T22:59:11.754Z,2.80
2022-08-26T23:01:43.189Z,2.35
2022-08-26T23:04:13.048Z,2.47
2022-08-26T23:06:43.375Z,2.42
2022-08-26T23:09:20.108Z,2.80
2022-08-26T23:11:50.362Z,2.35
2022-08-26T23:14:19.517Z,2.83
2022-08-26T23:16:47.871Z,2.28
2022-08-26T23:19:20.432Z,3.38
2022-08-26T23:21:49.482Z,2.70
2022-08-26T23:24:18.778Z,2.28
2022-08-26T23:26:47.398Z,2.00
2022-08-26T23:29:16.392Z,1.88
2022-08-26T23:31:45.137Z,2.53
2022-08-26T23:34:31.116Z,2.00
2022-08-26T23:37:01.095Z,2.22
2022-08-26T23:39:29.705Z,2.78
2022-08-26T23:41:58.146Z,1.88
2022-08-26T23:44:26.743Z,2.65
2022-08-26T23:46:55.018Z,2.08
2022-08-26T23:49:23.474Z,2.05
2022-08-26T23:52:09.304Z,2.80
2022-08-26T23:54:39.422Z,2.63
2022-08-26T23:57:07.910Z,2.17
2022-08-26T23:59:37.363Z,2.33
